sensor_id;sensor_type;location;lat;lon;timestamp;temperature;humidity
336;DHT22;156;48.738;9.228;2023-05-20T00:00:55;12.00;1.00
336;DHT22;156;48.738;9.228;2023-05-20T00:03:35;12.00;1.00
336;DHT22;156;48.738;9.228;2023-05-20T00:06:05;13.30;1.00
336;DHT22;156;48.738;9.228;2023-05-20T00:09:00;12.00;1.00
336;DHT22;156;48.738;9.228;2023-05-20T00:12:00;13.20;1.00
336;DHT22;156;48.738;9.228;2023-05-20T00:14:31;11.40;1.00
336;DHT22;156;48.738;9.228;2023-05-20T00:17:04;12.10;1.00
336;DHT22;156;48.738;9.228;2023-05-20T00:19:40;12.20;1.00
336;DHT22;156;48.738;9.228;2023-05-20T00:22:21;12.10;1.00
336;DHT22;156;48.738;9.228;2023-05-20T00:24:48;12.10;1.00
336;DHT22;156;48.738;9.228;2023-05-20T00:27:29;12.00;1.00
336;DHT22;156;48.738;9.228;2023-05-20T00:30:18;12.10;1.00
336;DHT22;156;48.738;9.228;2023-05-20T00:35:43;11.50;1.00
336;DHT22;156;48.738;9.228;2023-05-20T00:38:11;12.00;1.00
336;DHT22;156;48.738;9.228;2023-05-20T00:40:38;12.00;1.00
336;DHT22;156;48.738;9.228;2023-05-20T00:43:07;12.00;1.00
336;DHT22;156;48.738;9.228;2023-05-20T00:45:33;11.90;1.00
336;DHT22;156;48.738;9.228;2023-05-20T00:48:01;11.90;1.00
336;DHT22;156;48.738;9.228;2023-05-20T00:50:28;11.90;1.00
336;DHT22;156;48.738;9.228;2023-05-20T00:52:55;11.90;1.00
336;DHT22;156;48.738;9.228;2023-05-20T00:55:24;11.90;1.00
336;DHT22;156;48.738;9.228;2023-05-20T00:57:51;11.90;1.00
336;DHT22;156;48.738;9.228;2023-05-20T01:00:20;11.90;1.00
336;DHT22;156;48.738;9.228;2023-05-20T01:02:48;11.90;1.00
336;DHT22;156;48.738;9.228;2023-05-20T01:05:15;11.90;1.00
336;DHT22;156;48.738;9.228;2023-05-20T01:07:42;11.90;1.00
336;DHT22;156;48.738;9.228;2023-05-20T01:10:10;11.90;1.00
336;DHT22;156;48.738;9.228;2023-05-20T01:12:41;11.90;1.00
336;DHT22;156;48.738;9.228;2023-05-20T01:15:10;11.90;1.00
336;DHT22;156;48.738;9.228;2023-05-20T01:17:41;11.90;1.00
336;DHT22;156;48.738;9.228;2023-05-20T01:20:10;12.00;1.00
336;DHT22;156;48.738;9.228;2023-05-20T01:22:46;12.00;1.00
336;DHT22;156;48.738;9.228;2023-05-20T01:25:15;11.90;1.00
336;DHT22;156;48.738;9.228;2023-05-20T01:27:43;11.90;1.00
336;DHT22;156;48.738;9.228;2023-05-20T01:30:11;11.90;1.00
336;DHT22;156;48.738;9.228;2023-05-20T01:32:42;11.90;1.00
336;DHT22;156;48.738;9.228;2023-05-20T01:35:10;11.90;1.00
336;DHT22;156;48.738;9.228;2023-05-20T01:37:40;11.80;1.00
336;DHT22;156;48.738;9.228;2023-05-20T01:40:08;11.80;1.00
336;DHT22;156;48.738;9.228;2023-05-20T01:42:35;11.80;1.00
336;DHT22;156;48.738;9.228;2023-05-20T01:45:04;11.80;1.00
336;DHT22;156;48.738;9.228;2023-05-20T01:47:31;11.80;1.00
336;DHT22;156;48.738;9.228;2023-05-20T01:49:58;11.70;1.00
336;DHT22;156;48.738;9.228;2023-05-20T01:52:25;11.70;1.00
336;DHT22;156;48.738;9.228;2023-05-20T01:54:53;11.70;1.00
336;DHT22;156;48.738;9.228;2023-05-20T01:57:21;11.70;1.00
336;DHT22;156;48.738;9.228;2023-05-20T01:59:49;11.70;1.00
336;DHT22;156;48.738;9.228;2023-05-20T02:02:16;11.60;1.00
336;DHT22;156;48.738;9.228;2023-05-20T02:04:45;11.60;1.00
336;DHT22;156;48.738;9.228;2023-05-20T02:07:13;11.60;1.00
336;DHT22;156;48.738;9.228;2023-05-20T02:09:40;11.50;1.00
336;DHT22;156;48.738;9.228;2023-05-20T02:12:09;11.50;1.00
336;DHT22;156;48.738;9.228;2023-05-20T02:14:40;11.40;1.00
336;DHT22;156;48.738;9.228;2023-05-20T02:17:07;11.40;1.00
336;DHT22;156;48.738;9.228;2023-05-20T02:19:34;11.40;1.00
336;DHT22;156;48.738;9.228;2023-05-20T02:22:02;11.30;1.00
336;DHT22;156;48.738;9.228;2023-05-20T02:24:29;11.30;1.00
336;DHT22;156;48.738;9.228;2023-05-20T02:26:55;11.20;1.00
336;DHT22;156;48.738;9.228;2023-05-20T02:29:24;11.20;1.70
336;DHT22;156;48.738;9.228;2023-05-20T02:31:54;11.20;2.50
336;DHT22;156;48.738;9.228;2023-05-20T02:34:21;11.10;2.30
336;DHT22;156;48.738;9.228;2023-05-20T02:36:48;11.10;2.60
336;DHT22;156;48.738;9.228;2023-05-20T02:39:18;11.10;5.90
336;DHT22;156;48.738;9.228;2023-05-20T02:41:47;11.10;7.30
336;DHT22;156;48.738;9.228;2023-05-20T02:44:14;11.00;10.80
336;DHT22;156;48.738;9.228;2023-05-20T02:46:42;11.00;10.60
336;DHT22;156;48.738;9.228;2023-05-20T02:49:09;11.00;14.00
336;DHT22;156;48.738;9.228;2023-05-20T02:51:36;11.00;15.50
336;DHT22;156;48.738;9.228;2023-05-20T02:54:03;11.00;17.40
336;DHT22;156;48.738;9.228;2023-05-20T02:56:30;11.00;18.50
336;DHT22;156;48.738;9.228;2023-05-20T02:58:57;11.00;18.90
336;DHT22;156;48.738;9.228;2023-05-20T03:01:27;11.00;19.20
336;DHT22;156;48.738;9.228;2023-05-20T03:03:56;11.00;21.00
336;DHT22;156;48.738;9.228;2023-05-20T03:06:23;11.00;22.00
336;DHT22;156;48.738;9.228;2023-05-20T03:08:50;11.00;22.40
336;DHT22;156;48.738;9.228;2023-05-20T03:11:17;11.00;23.20
336;DHT22;156;48.738;9.228;2023-05-20T03:13:44;11.00;23.30
336;DHT22;156;48.738;9.228;2023-05-20T03:16:11;11.00;23.20
336;DHT22;156;48.738;9.228;2023-05-20T03:18:38;11.00;24.10
336;DHT22;156;48.738;9.228;2023-05-20T03:21:07;11.00;26.20
336;DHT22;156;48.738;9.228;2023-05-20T03:23:34;11.00;26.90
336;DHT22;156;48.738;9.228;2023-05-20T03:26:02;10.90;27.00
336;DHT22;156;48.738;9.228;2023-05-20T03:28:28;10.90;27.30
336;DHT22;156;48.738;9.228;2023-05-20T03:30:55;10.90;29.30
336;DHT22;156;48.738;9.228;2023-05-20T03:33:22;10.80;30.20
336;DHT22;156;48.738;9.228;2023-05-20T03:35:50;10.80;31.50
336;DHT22;156;48.738;9.228;2023-05-20T03:38:19;10.80;33.70
336;DHT22;156;48.738;9.228;2023-05-20T03:40:45;10.80;35.90
336;DHT22;156;48.738;9.228;2023-05-20T03:43:12;10.80;37.50
336;DHT22;156;48.738;9.228;2023-05-20T03:45:39;10.80;39.30
336;DHT22;156;48.738;9.228;2023-05-20T03:48:06;10.80;40.80
336;DHT22;156;48.738;9.228;2023-05-20T03:50:33;10.80;41.10
336;DHT22;156;48.738;9.228;2023-05-20T03:53:00;10.80;40.80
336;DHT22;156;48.738;9.228;2023-05-20T03:55:28;10.90;40.80
336;DHT22;156;48.738;9.228;2023-05-20T03:57:56;10.90;38.30
336;DHT22;156;48.738;9.228;2023-05-20T04:00:23;10.90;37.90
336;DHT22;156;48.738;9.228;2023-05-20T04:02:50;11.00;36.20
336;DHT22;156;48.738;9.228;2023-05-20T04:05:19;11.00;35.80
336;DHT22;156;48.738;9.228;2023-05-20T04:07:46;11.10;35.40
336;DHT22;156;48.738;9.228;2023-05-20T04:10:14;11.10;33.60
336;DHT22;156;48.738;9.228;2023-05-20T04:12:42;11.10;32.10
336;DHT22;156;48.738;9.228;2023-05-20T04:15:12;11.10;31.40
336;DHT22;156;48.738;9.228;2023-05-20T04:17:40;11.10;31.20
336;DHT22;156;48.738;9.228;2023-05-20T04:20:07;11.20;29.70
336;DHT22;156;48.738;9.228;2023-05-20T04:22:35;11.30;28.40
336;DHT22;156;48.738;9.228;2023-05-20T04:25:04;11.30;27.00
336;DHT22;156;48.738;9.228;2023-05-20T04:27:32;11.30;27.10
336;DHT22;156;48.738;9.228;2023-05-20T04:30:00;11.30;27.10
336;DHT22;156;48.738;9.228;2023-05-20T04:32:30;11.30;27.20
336;DHT22;156;48.738;9.228;2023-05-20T04:34:57;11.30;27.00
336;DHT22;156;48.738;9.228;2023-05-20T04:37:25;11.30;27.00
336;DHT22;156;48.738;9.228;2023-05-20T04:39:51;11.30;27.10
336;DHT22;156;48.738;9.228;2023-05-20T04:42:18;11.30;27.30
336;DHT22;156;48.738;9.228;2023-05-20T04:44:47;11.30;27.20
336;DHT22;156;48.738;9.228;2023-05-20T04:47:15;11.30;27.10
336;DHT22;156;48.738;9.228;2023-05-20T04:49:42;11.30;28.40
336;DHT22;156;48.738;9.228;2023-05-20T04:52:10;11.40;27.70
336;DHT22;156;48.738;9.228;2023-05-20T04:54:39;11.40;27.70
336;DHT22;156;48.738;9.228;2023-05-20T04:57:06;11.50;27.60
336;DHT22;156;48.738;9.228;2023-05-20T04:59:32;11.50;27.30
336;DHT22;156;48.738;9.228;2023-05-20T05:02:01;11.60;26.90
336;DHT22;156;48.738;9.228;2023-05-20T05:04:30;11.60;25.50
336;DHT22;156;48.738;9.228;2023-05-20T05:06:56;11.70;24.10
336;DHT22;156;48.738;9.228;2023-05-20T05:09:25;11.70;22.20
336;DHT22;156;48.738;9.228;2023-05-20T05:11:55;11.80;19.30
336;DHT22;156;48.738;9.228;2023-05-20T05:14:22;11.80;17.50
336;DHT22;156;48.738;9.228;2023-05-20T05:16:49;11.90;18.40
336;DHT22;156;48.738;9.228;2023-05-20T05:19:16;11.90;15.30
336;DHT22;156;48.738;9.228;2023-05-20T05:21:44;12.00;15.20
336;DHT22;156;48.738;9.228;2023-05-20T05:24:13;12.00;12.00
336;DHT22;156;48.738;9.228;2023-05-20T05:26:40;12.00;13.30
336;DHT22;156;48.738;9.228;2023-05-20T05:29:07;12.00;11.10
336;DHT22;156;48.738;9.228;2023-05-20T05:31:34;12.10;6.90
336;DHT22;156;48.738;9.228;2023-05-20T05:34:01;12.10;9.20
336;DHT22;156;48.738;9.228;2023-05-20T05:36:28;12.10;10.40
336;DHT22;156;48.738;9.228;2023-05-20T05:38:57;12.20;11.10
336;DHT22;156;48.738;9.228;2023-05-20T05:41:24;12.20;10.60
336;DHT22;156;48.738;9.228;2023-05-20T05:43:57;12.30;10.90
336;DHT22;156;48.738;9.228;2023-05-20T05:46:39;12.20;6.60
336;DHT22;156;48.738;9.228;2023-05-20T05:49:08;12.40;3.10
336;DHT22;156;48.738;9.228;2023-05-20T05:51:37;12.50;3.30
336;DHT22;156;48.738;9.228;2023-05-20T05:54:05;12.60;3.10
336;DHT22;156;48.738;9.228;2023-05-20T05:56:35;12.60;1.00
336;DHT22;156;48.738;9.228;2023-05-20T05:59:03;12.70;1.00
336;DHT22;156;48.738;9.228;2023-05-20T06:01:30;12.80;1.00
336;DHT22;156;48.738;9.228;2023-05-20T06:04:04;12.90;1.00
336;DHT22;156;48.738;9.228;2023-05-20T06:06:32;13.00;1.00
336;DHT22;156;48.738;9.228;2023-05-20T06:08:59;13.00;1.00
336;DHT22;156;48.738;9.228;2023-05-20T06:11:27;13.10;1.00
336;DHT22;156;48.738;9.228;2023-05-20T06:13:54;13.10;1.00
336;DHT22;156;48.738;9.228;2023-05-20T06:16:21;13.20;1.00
336;DHT22;156;48.738;9.228;2023-05-20T06:18:48;13.30;1.00
336;DHT22;156;48.738;9.228;2023-05-20T06:21:15;13.30;1.00
336;DHT22;156;48.738;9.228;2023-05-20T06:23:42;13.40;1.00
336;DHT22;156;48.738;9.228;2023-05-20T06:26:09;13.50;1.00
336;DHT22;156;48.738;9.228;2023-05-20T06:28:41;13.60;1.00
336;DHT22;156;48.738;9.228;2023-05-20T06:31:08;13.80;1.00
336;DHT22;156;48.738;9.228;2023-05-20T06:33:34;13.90;1.00
336;DHT22;156;48.738;9.228;2023-05-20T06:36:02;13.90;1.00
336;DHT22;156;48.738;9.228;2023-05-20T06:38:30;14.00;1.00
336;DHT22;156;48.738;9.228;2023-05-20T06:40:57;13.90;1.00
336;DHT22;156;48.738;9.228;2023-05-20T06:43:23;13.90;1.00
336;DHT22;156;48.738;9.228;2023-05-20T06:45:52;13.90;1.00
336;DHT22;156;48.738;9.228;2023-05-20T06:48:19;14.00;1.00
336;DHT22;156;48.738;9.228;2023-05-20T06:50:46;14.10;1.00
336;DHT22;156;48.738;9.228;2023-05-20T06:53:12;14.20;1.00
336;DHT22;156;48.738;9.228;2023-05-20T06:55:39;14.20;1.00
336;DHT22;156;48.738;9.228;2023-05-20T06:58:06;14.30;1.00
336;DHT22;156;48.738;9.228;2023-05-20T07:00:33;14.10;1.00
336;DHT22;156;48.738;9.228;2023-05-20T07:03:02;14.20;1.00
336;DHT22;156;48.738;9.228;2023-05-20T07:05:29;14.20;1.00
336;DHT22;156;48.738;9.228;2023-05-20T07:07:56;14.40;1.00
336;DHT22;156;48.738;9.228;2023-05-20T07:10:23;14.40;1.00
336;DHT22;156;48.738;9.228;2023-05-20T07:12:50;14.50;1.00
336;DHT22;156;48.738;9.228;2023-05-20T07:15:17;14.40;1.00
336;DHT22;156;48.738;9.228;2023-05-20T07:17:44;14.50;1.00
336;DHT22;156;48.738;9.228;2023-05-20T07:20:12;14.40;1.00
336;DHT22;156;48.738;9.228;2023-05-20T07:22:39;14.40;1.00
336;DHT22;156;48.738;9.228;2023-05-20T07:25:07;14.60;1.00
336;DHT22;156;48.738;9.228;2023-05-20T07:27:34;14.70;1.00
336;DHT22;156;48.738;9.228;2023-05-20T07:30:01;14.70;1.00
336;DHT22;156;48.738;9.228;2023-05-20T07:32:28;14.70;1.00
336;DHT22;156;48.738;9.228;2023-05-20T07:34:55;14.80;1.00
336;DHT22;156;48.738;9.228;2023-05-20T07:37:23;14.60;1.00
336;DHT22;156;48.738;9.228;2023-05-20T07:39:50;14.70;1.00
336;DHT22;156;48.738;9.228;2023-05-20T07:42:17;14.80;1.00
336;DHT22;156;48.738;9.228;2023-05-20T07:44:44;15.10;1.00
336;DHT22;156;48.738;9.228;2023-05-20T07:47:11;15.30;1.00
336;DHT22;156;48.738;9.228;2023-05-20T07:49:38;15.20;1.00
336;DHT22;156;48.738;9.228;2023-05-20T07:52:06;15.10;1.00
336;DHT22;156;48.738;9.228;2023-05-20T07:54:34;15.00;1.00
336;DHT22;156;48.738;9.228;2023-05-20T07:57:01;15.20;1.00
336;DHT22;156;48.738;9.228;2023-05-20T07:59:28;15.20;1.00
336;DHT22;156;48.738;9.228;2023-05-20T08:01:55;15.20;1.00
336;DHT22;156;48.738;9.228;2023-05-20T08:04:22;15.20;1.00
336;DHT22;156;48.738;9.228;2023-05-20T08:06:52;15.40;1.00
336;DHT22;156;48.738;9.228;2023-05-20T08:09:19;15.40;1.00
336;DHT22;156;48.738;9.228;2023-05-20T08:11:47;15.50;1.00
336;DHT22;156;48.738;9.228;2023-05-20T08:14:14;15.60;1.00
336;DHT22;156;48.738;9.228;2023-05-20T08:16:41;15.80;1.00
336;DHT22;156;48.738;9.228;2023-05-20T08:19:08;15.90;1.00
336;DHT22;156;48.738;9.228;2023-05-20T08:21:35;15.90;1.00
336;DHT22;156;48.738;9.228;2023-05-20T08:24:03;16.10;1.00
336;DHT22;156;48.738;9.228;2023-05-20T08:26:30;16.10;1.00
336;DHT22;156;48.738;9.228;2023-05-20T08:28:58;16.00;1.00
336;DHT22;156;48.738;9.228;2023-05-20T08:31:25;15.90;1.00
336;DHT22;156;48.738;9.228;2023-05-20T08:33:52;16.20;1.00
336;DHT22;156;48.738;9.228;2023-05-20T08:36:19;16.20;1.00
336;DHT22;156;48.738;9.228;2023-05-20T08:38:46;16.20;1.00
336;DHT22;156;48.738;9.228;2023-05-20T08:41:13;16.40;1.00
336;DHT22;156;48.738;9.228;2023-05-20T08:43:41;16.70;1.00
336;DHT22;156;48.738;9.228;2023-05-20T08:46:11;16.80;1.00
336;DHT22;156;48.738;9.228;2023-05-20T08:48:38;17.00;1.00
336;DHT22;156;48.738;9.228;2023-05-20T08:51:08;17.20;1.00
336;DHT22;156;48.738;9.228;2023-05-20T08:53:35;17.40;1.00
336;DHT22;156;48.738;9.228;2023-05-20T08:56:02;17.40;1.00
336;DHT22;156;48.738;9.228;2023-05-20T08:58:29;17.50;1.00
336;DHT22;156;48.738;9.228;2023-05-20T09:00:57;17.40;1.00
336;DHT22;156;48.738;9.228;2023-05-20T09:03:28;17.40;1.00
336;DHT22;156;48.738;9.228;2023-05-20T09:06:03;17.20;1.00
336;DHT22;156;48.738;9.228;2023-05-20T09:08:30;17.00;1.00
336;DHT22;156;48.738;9.228;2023-05-20T09:10:57;17.00;1.00
336;DHT22;156;48.738;9.228;2023-05-20T09:13:24;17.10;1.00
336;DHT22;156;48.738;9.228;2023-05-20T09:15:51;17.40;1.00
336;DHT22;156;48.738;9.228;2023-05-20T09:18:18;17.50;1.00
336;DHT22;156;48.738;9.228;2023-05-20T09:20:49;17.80;1.00
336;DHT22;156;48.738;9.228;2023-05-20T09:23:18;17.90;1.00
336;DHT22;156;48.738;9.228;2023-05-20T09:25:48;17.80;1.00
336;DHT22;156;48.738;9.228;2023-05-20T09:28:17;17.80;1.00
336;DHT22;156;48.738;9.228;2023-05-20T09:30:47;17.80;1.00
336;DHT22;156;48.738;9.228;2023-05-20T09:33:14;17.90;1.00
336;DHT22;156;48.738;9.228;2023-05-20T09:35:43;17.70;1.00
336;DHT22;156;48.738;9.228;2023-05-20T09:38:13;17.40;1.00
336;DHT22;156;48.738;9.228;2023-05-20T09:40:41;17.60;1.00
336;DHT22;156;48.738;9.228;2023-05-20T09:43:10;17.60;1.00
336;DHT22;156;48.738;9.228;2023-05-20T09:45:38;17.60;1.00
336;DHT22;156;48.738;9.228;2023-05-20T09:48:07;17.70;1.00
336;DHT22;156;48.738;9.228;2023-05-20T09:50:36;17.70;1.00
336;DHT22;156;48.738;9.228;2023-05-20T09:53:03;17.70;1.00
336;DHT22;156;48.738;9.228;2023-05-20T09:55:32;17.80;1.00
336;DHT22;156;48.738;9.228;2023-05-20T09:58:01;17.80;1.00
336;DHT22;156;48.738;9.228;2023-05-20T10:00:28;18.10;1.00
336;DHT22;156;48.738;9.228;2023-05-20T10:02:58;18.30;1.00
336;DHT22;156;48.738;9.228;2023-05-20T10:05:28;18.40;1.00
336;DHT22;156;48.738;9.228;2023-05-20T10:08:24;18.70;1.00
336;DHT22;156;48.738;9.228;2023-05-20T10:11:02;18.50;1.00
336;DHT22;156;48.738;9.228;2023-05-20T10:13:42;18.40;1.00
336;DHT22;156;48.738;9.228;2023-05-20T10:16:18;18.30;1.00
336;DHT22;156;48.738;9.228;2023-05-20T10:18:53;18.10;1.00
336;DHT22;156;48.738;9.228;2023-05-20T10:21:23;18.20;1.00
336;DHT22;156;48.738;9.228;2023-05-20T10:23:50;18.30;1.00
336;DHT22;156;48.738;9.228;2023-05-20T10:26:19;18.30;1.00
336;DHT22;156;48.738;9.228;2023-05-20T10:28:49;18.40;1.00
336;DHT22;156;48.738;9.228;2023-05-20T10:31:17;18.50;1.00
336;DHT22;156;48.738;9.228;2023-05-20T10:33:45;18.50;1.00
336;DHT22;156;48.738;9.228;2023-05-20T10:36:22;18.50;1.00
336;DHT22;156;48.738;9.228;2023-05-20T10:38:52;18.40;1.00
336;DHT22;156;48.738;9.228;2023-05-20T10:41:22;18.40;1.00
336;DHT22;156;48.738;9.228;2023-05-20T10:44:01;18.60;1.00
336;DHT22;156;48.738;9.228;2023-05-20T10:46:28;18.70;1.00
336;DHT22;156;48.738;9.228;2023-05-20T10:49:00;18.90;1.00
336;DHT22;156;48.738;9.228;2023-05-20T10:51:28;19.20;1.00
336;DHT22;156;48.738;9.228;2023-05-20T10:53:56;19.10;1.00
336;DHT22;156;48.738;9.228;2023-05-20T10:56:26;19.10;1.00
336;DHT22;156;48.738;9.228;2023-05-20T10:58:53;19.10;1.00
336;DHT22;156;48.738;9.228;2023-05-20T11:01:23;19.20;1.00
336;DHT22;156;48.738;9.228;2023-05-20T11:03:50;19.60;1.00
336;DHT22;156;48.738;9.228;2023-05-20T11:06:18;19.50;1.00
336;DHT22;156;48.738;9.228;2023-05-20T11:08:45;19.60;1.00
336;DHT22;156;48.738;9.228;2023-05-20T11:11:13;19.80;1.00
336;DHT22;156;48.738;9.228;2023-05-20T11:13:41;19.80;1.00
336;DHT22;156;48.738;9.228;2023-05-20T11:16:08;19.80;1.00
336;DHT22;156;48.738;9.228;2023-05-20T11:18:36;20.10;1.00
336;DHT22;156;48.738;9.228;2023-05-20T11:21:03;20.20;1.00
336;DHT22;156;48.738;9.228;2023-05-20T11:23:30;20.20;1.00
336;DHT22;156;48.738;9.228;2023-05-20T11:26:00;19.90;1.00
336;DHT22;156;48.738;9.228;2023-05-20T11:28:27;19.90;1.00
336;DHT22;156;48.738;9.228;2023-05-20T11:30:59;20.10;1.00
336;DHT22;156;48.738;9.228;2023-05-20T11:33:26;20.20;1.00
336;DHT22;156;48.738;9.228;2023-05-20T11:35:53;20.70;1.00
336;DHT22;156;48.738;9.228;2023-05-20T11:38:20;21.00;1.00
336;DHT22;156;48.738;9.228;2023-05-20T11:40:50;20.90;1.00
336;DHT22;156;48.738;9.228;2023-05-20T11:43:18;20.50;1.00
336;DHT22;156;48.738;9.228;2023-05-20T11:45:46;20.30;1.00
336;DHT22;156;48.738;9.228;2023-05-20T11:48:15;20.40;1.00
336;DHT22;156;48.738;9.228;2023-05-20T11:50:43;20.50;1.00
336;DHT22;156;48.738;9.228;2023-05-20T11:53:13;20.50;1.00
336;DHT22;156;48.738;9.228;2023-05-20T11:55:48;20.60;1.00
336;DHT22;156;48.738;9.228;2023-05-20T11:58:17;20.70;1.00
336;DHT22;156;48.738;9.228;2023-05-20T12:00:44;20.80;1.00
336;DHT22;156;48.738;9.228;2023-05-20T12:03:11;20.60;1.00
336;DHT22;156;48.738;9.228;2023-05-20T12:05:40;20.50;1.00
336;DHT22;156;48.738;9.228;2023-05-20T12:08:07;20.40;1.00
336;DHT22;156;48.738;9.228;2023-05-20T12:10:34;20.70;1.00
336;DHT22;156;48.738;9.228;2023-05-20T12:13:02;20.80;1.00
336;DHT22;156;48.738;9.228;2023-05-20T12:15:29;21.00;1.00
336;DHT22;156;48.738;9.228;2023-05-20T12:17:56;21.20;1.00
336;DHT22;156;48.738;9.228;2023-05-20T12:20:24;21.30;1.00
336;DHT22;156;48.738;9.228;2023-05-20T12:22:55;21.50;1.00
336;DHT22;156;48.738;9.228;2023-05-20T12:25:24;21.90;1.00
336;DHT22;156;48.738;9.228;2023-05-20T12:27:51;21.80;1.00
336;DHT22;156;48.738;9.228;2023-05-20T12:30:22;22.10;1.00
336;DHT22;156;48.738;9.228;2023-05-20T12:32:49;21.90;1.00
336;DHT22;156;48.738;9.228;2023-05-20T12:35:17;21.60;1.00
336;DHT22;156;48.738;9.228;2023-05-20T12:37:45;21.40;1.00
336;DHT22;156;48.738;9.228;2023-05-20T12:40:13;21.40;1.00
336;DHT22;156;48.738;9.228;2023-05-20T12:42:40;21.40;1.00
336;DHT22;156;48.738;9.228;2023-05-20T12:45:08;21.40;1.00
336;DHT22;156;48.738;9.228;2023-05-20T12:47:35;21.50;1.00
336;DHT22;156;48.738;9.228;2023-05-20T12:50:03;21.60;1.00
336;DHT22;156;48.738;9.228;2023-05-20T12:52:30;22.00;1.00
336;DHT22;156;48.738;9.228;2023-05-20T12:54:56;22.20;1.00
336;DHT22;156;48.738;9.228;2023-05-20T12:57:25;22.30;1.00
336;DHT22;156;48.738;9.228;2023-05-20T12:59:52;22.10;1.00
336;DHT22;156;48.738;9.228;2023-05-20T13:02:19;22.20;1.00
336;DHT22;156;48.738;9.228;2023-05-20T13:04:46;22.40;1.00
336;DHT22;156;48.738;9.228;2023-05-20T13:07:13;22.60;1.00
336;DHT22;156;48.738;9.228;2023-05-20T13:09:40;23.00;1.00
336;DHT22;156;48.738;9.228;2023-05-20T13:12:07;23.40;1.00
336;DHT22;156;48.738;9.228;2023-05-20T13:14:35;23.70;1.00
336;DHT22;156;48.738;9.228;2023-05-20T13:17:02;23.70;1.00
336;DHT22;156;48.738;9.228;2023-05-20T13:19:29;23.70;1.00
336;DHT22;156;48.738;9.228;2023-05-20T13:21:56;23.30;1.00
336;DHT22;156;48.738;9.228;2023-05-20T13:24:23;23.40;1.00
336;DHT22;156;48.738;9.228;2023-05-20T13:26:50;23.00;1.00
336;DHT22;156;48.738;9.228;2023-05-20T13:29:17;23.10;1.00
336;DHT22;156;48.738;9.228;2023-05-20T13:31:46;22.90;1.00
336;DHT22;156;48.738;9.228;2023-05-20T13:34:13;22.60;1.00
336;DHT22;156;48.738;9.228;2023-05-20T13:36:40;22.80;1.00
336;DHT22;156;48.738;9.228;2023-05-20T13:39:07;22.70;1.00
336;DHT22;156;48.738;9.228;2023-05-20T13:41:34;22.60;1.00
336;DHT22;156;48.738;9.228;2023-05-20T13:44:01;22.60;1.00
336;DHT22;156;48.738;9.228;2023-05-20T13:46:27;22.80;1.00
336;DHT22;156;48.738;9.228;2023-05-20T13:48:56;23.00;1.00
336;DHT22;156;48.738;9.228;2023-05-20T13:51:23;23.20;1.00
336;DHT22;156;48.738;9.228;2023-05-20T13:53:50;22.80;1.00
336;DHT22;156;48.738;9.228;2023-05-20T13:56:17;22.60;1.00
336;DHT22;156;48.738;9.228;2023-05-20T13:58:44;22.30;1.00
336;DHT22;156;48.738;9.228;2023-05-20T14:01:11;22.20;1.00
336;DHT22;156;48.738;9.228;2023-05-20T14:03:38;22.80;1.00
336;DHT22;156;48.738;9.228;2023-05-20T14:06:06;23.00;1.00
336;DHT22;156;48.738;9.228;2023-05-20T14:08:33;23.30;1.00
336;DHT22;156;48.738;9.228;2023-05-20T14:11:00;23.50;1.00
336;DHT22;156;48.738;9.228;2023-05-20T14:13:27;23.30;1.00
336;DHT22;156;48.738;9.228;2023-05-20T14:15:54;23.20;1.00
336;DHT22;156;48.738;9.228;2023-05-20T14:18:21;23.20;1.00
336;DHT22;156;48.738;9.228;2023-05-20T14:20:48;23.30;1.00
336;DHT22;156;48.738;9.228;2023-05-20T14:23:17;23.30;1.00
336;DHT22;156;48.738;9.228;2023-05-20T14:25:45;23.60;1.00
336;DHT22;156;48.738;9.228;2023-05-20T14:28:12;23.50;1.00
336;DHT22;156;48.738;9.228;2023-05-20T14:30:40;23.60;1.00
336;DHT22;156;48.738;9.228;2023-05-20T14:33:06;23.40;1.00
336;DHT22;156;48.738;9.228;2023-05-20T14:35:34;23.60;1.00
336;DHT22;156;48.738;9.228;2023-05-20T14:38:00;23.60;1.00
336;DHT22;156;48.738;9.228;2023-05-20T14:40:29;23.40;1.00
336;DHT22;156;48.738;9.228;2023-05-20T14:42:56;23.20;1.00
336;DHT22;156;48.738;9.228;2023-05-20T14:45:22;23.10;1.00
336;DHT22;156;48.738;9.228;2023-05-20T14:47:49;23.00;1.00
336;DHT22;156;48.738;9.228;2023-05-20T14:50:16;22.90;1.00
336;DHT22;156;48.738;9.228;2023-05-20T14:52:43;23.10;1.00
336;DHT22;156;48.738;9.228;2023-05-20T14:55:12;23.00;1.00
336;DHT22;156;48.738;9.228;2023-05-20T14:57:40;23.20;1.00
336;DHT22;156;48.738;9.228;2023-05-20T15:00:09;23.20;1.00
336;DHT22;156;48.738;9.228;2023-05-20T15:02:36;23.20;1.00
336;DHT22;156;48.738;9.228;2023-05-20T15:05:03;23.00;1.00
336;DHT22;156;48.738;9.228;2023-05-20T15:07:30;22.80;1.00
336;DHT22;156;48.738;9.228;2023-05-20T15:09:57;22.80;1.00
336;DHT22;156;48.738;9.228;2023-05-20T15:12:24;22.70;1.00
336;DHT22;156;48.738;9.228;2023-05-20T15:14:52;22.90;1.00
336;DHT22;156;48.738;9.228;2023-05-20T15:17:19;23.20;1.00
336;DHT22;156;48.738;9.228;2023-05-20T15:19:46;23.30;1.00
336;DHT22;156;48.738;9.228;2023-05-20T15:22:13;23.40;1.00
336;DHT22;156;48.738;9.228;2023-05-20T15:24:40;23.20;1.00
336;DHT22;156;48.738;9.228;2023-05-20T15:27:07;23.20;1.00
336;DHT22;156;48.738;9.228;2023-05-20T15:29:34;23.50;1.00
336;DHT22;156;48.738;9.228;2023-05-20T15:32:05;23.60;1.00
336;DHT22;156;48.738;9.228;2023-05-20T15:34:32;24.20;1.00
336;DHT22;156;48.738;9.228;2023-05-20T15:36:59;24.20;1.00
336;DHT22;156;48.738;9.228;2023-05-20T15:39:26;23.90;1.00
336;DHT22;156;48.738;9.228;2023-05-20T15:41:53;23.80;1.00
336;DHT22;156;48.738;9.228;2023-05-20T15:44:20;23.30;1.00
336;DHT22;156;48.738;9.228;2023-05-20T15:46:47;23.10;1.00
336;DHT22;156;48.738;9.228;2023-05-20T15:49:16;23.10;1.00
336;DHT22;156;48.738;9.228;2023-05-20T15:51:42;23.60;1.00
336;DHT22;156;48.738;9.228;2023-05-20T15:54:09;24.00;1.00
336;DHT22;156;48.738;9.228;2023-05-20T15:56:36;24.50;1.00
336;DHT22;156;48.738;9.228;2023-05-20T15:59:03;24.30;1.00
336;DHT22;156;48.738;9.228;2023-05-20T16:01:30;24.20;1.00
336;DHT22;156;48.738;9.228;2023-05-20T16:03:57;24.60;1.00
336;DHT22;156;48.738;9.228;2023-05-20T16:06:25;25.10;1.00
336;DHT22;156;48.738;9.228;2023-05-20T16:08:52;25.70;1.00
336;DHT22;156;48.738;9.228;2023-05-20T16:11:19;25.70;1.00
336;DHT22;156;48.738;9.228;2023-05-20T16:13:46;25.40;1.00
336;DHT22;156;48.738;9.228;2023-05-20T16:16:13;25.60;1.00
336;DHT22;156;48.738;9.228;2023-05-20T16:18:41;25.70;1.00
336;DHT22;156;48.738;9.228;2023-05-20T16:21:08;25.40;1.00
336;DHT22;156;48.738;9.228;2023-05-20T16:23:36;25.40;1.00
336;DHT22;156;48.738;9.228;2023-05-20T16:26:03;25.60;1.00
336;DHT22;156;48.738;9.228;2023-05-20T16:28:33;25.60;1.00
336;DHT22;156;48.738;9.228;2023-05-20T16:31:03;25.90;1.00
336;DHT22;156;48.738;9.228;2023-05-20T16:33:30;26.50;1.00
336;DHT22;156;48.738;9.228;2023-05-20T16:35:57;26.40;1.00
336;DHT22;156;48.738;9.228;2023-05-20T16:38:24;25.90;1.00
336;DHT22;156;48.738;9.228;2023-05-20T16:40:53;25.80;1.00
336;DHT22;156;48.738;9.228;2023-05-20T16:43:20;26.10;1.00
336;DHT22;156;48.738;9.228;2023-05-20T16:45:50;26.00;1.00
336;DHT22;156;48.738;9.228;2023-05-20T16:48:17;25.80;1.00
336;DHT22;156;48.738;9.228;2023-05-20T16:50:43;26.10;1.00
336;DHT22;156;48.738;9.228;2023-05-20T16:53:11;26.20;1.00
336;DHT22;156;48.738;9.228;2023-05-20T16:55:38;25.70;1.00
336;DHT22;156;48.738;9.228;2023-05-20T16:58:06;25.30;1.00